Terminal Aerodrome Forecast
Issued by NWS Memphis, TN

Home | Current Version | Previous Version | Text Only | Print | Product List | Glossary On
Versions: 1 2 3 4 5 6 7 8 9 10 11 12 13 14 15 16 17 18
000
FTUS44 KMEG 241733
TAFMKL
TAF
KMKL 241733Z 2418/2518 22004KT P6SM SCT030 BKN250
     FM242200 23005KT P6SM VCTS SCT040CB BKN250
     FM250300 VRB03KT P6SM SCT250
     FM250600 VRB03KT 5SM BR FEW250
      TEMPO 2509/2513 1SM BR BKN008
     FM251500 22004KT P6SM SCT030=

USA.gov is the U.S. government's official web portal to all federal, state and local government web resources and services.